createdAt,value
2018-08-14T00:00:20.488Z,999.39
2018-08-14T00:01:01.019Z,999.42
2018-08-14T00:01:41.518Z,999.41
2018-08-14T00:02:22.029Z,999.44
2018-08-14T00:03:02.541Z,999.43
2018-08-14T00:03:43.030Z,999.43
2018-08-14T00:04:23.539Z,999.48
2018-08-14T00:05:04.072Z,999.47
2018-08-14T00:05:44.575Z,999.45
2018-08-14T00:06:25.062Z,999.47
2018-08-14T00:07:05.588Z,999.47
2018-08-14T00:07:46.127Z,999.48
2018-08-14T00:08:26.628Z,999.48
2018-08-14T00:09:07.160Z,999.52
2018-08-14T00:09:47.625Z,999.51
2018-08-14T00:10:28.130Z,999.49
2018-08-14T00:11:08.642Z,999.52
2018-08-14T00:11:49.159Z,999.55
2018-08-14T00:12:29.668Z,999.51
2018-08-14T00:13:10.160Z,999.48
2018-08-14T00:13:50.676Z,999.49
2018-08-14T00:14:31.173Z,999.52
2018-08-14T00:15:11.715Z,999.51
2018-08-14T00:15:52.224Z,999.5
2018-08-14T00:16:32.707Z,999.5
2018-08-14T00:17:13.177Z,999.53
2018-08-14T00:17:53.665Z,999.51
2018-08-14T00:18:34.132Z,999.48
2018-08-14T00:19:14.709Z,999.47
2018-08-14T00:19:55.253Z,999.52
2018-08-14T00:20:35.706Z,999.54
2018-08-14T00:21:16.215Z,999.46
2018-08-14T00:21:56.736Z,999.49
2018-08-14T00:22:37.259Z,999.47
2018-08-14T00:23:17.763Z,999.48
2018-08-14T00:23:58.279Z,999.48
2018-08-14T00:24:38.799Z,999.47
2018-08-14T00:25:19.262Z,999.5
2018-08-14T00:25:59.806Z,999.51
2018-08-14T00:26:40.297Z,999.53
2018-08-14T00:27:20.763Z,999.5
2018-08-14T00:28:01.289Z,999.51
2018-08-14T00:28:41.761Z,999.52
2018-08-14T00:29:22.251Z,999.49
2018-08-14T00:30:02.719Z,999.5
2018-08-14T00:30:43.245Z,999.51
2018-08-14T00:31:23.725Z,999.54
2018-08-14T00:32:04.237Z,999.56
2018-08-14T00:32:44.762Z,999.58
2018-08-14T00:33:25.239Z,999.54
2018-08-14T00:34:05.759Z,999.59
2018-08-14T00:34:46.254Z,999.58
2018-08-14T00:35:26.777Z,999.51
2018-08-14T00:36:07.225Z,999.59
2018-08-14T00:36:47.719Z,999.52
2018-08-14T00:37:28.216Z,999.54
2018-08-14T00:38:08.752Z,999.59
2018-08-14T00:38:49.249Z,999.6
2018-08-14T00:39:29.807Z,999.56
2018-08-14T00:40:10.318Z,999.6
2018-08-14T00:40:50.793Z,999.63
2018-08-14T00:41:31.269Z,999.62
2018-08-14T00:42:11.800Z,999.66
2018-08-14T00:42:52.262Z,999.62
2018-08-14T00:43:32.859Z,999.61
2018-08-14T00:44:13.298Z,999.65
2018-08-14T00:44:53.771Z,999.59
2018-08-14T00:45:34.249Z,999.58
2018-08-14T00:46:14.722Z,999.62
2018-08-14T00:46:55.267Z,999.63
2018-08-14T00:47:35.785Z,999.64
2018-08-14T00:48:16.343Z,999.61
2018-08-14T00:48:56.862Z,999.6
2018-08-14T00:49:37.370Z,999.66
2018-08-14T00:50:17.878Z,999.65
2018-08-14T00:50:58.353Z,999.62
2018-08-14T00:51:38.852Z,999.65
2018-08-14T00:52:19.347Z,999.61
2018-08-14T00:52:59.916Z,999.62
2018-08-14T00:53:40.337Z,999.62
2018-08-14T00:54:20.862Z,999.62
2018-08-14T00:55:01.317Z,999.61
2018-08-14T00:55:41.845Z,999.62
2018-08-14T00:56:22.354Z,999.62
2018-08-14T00:57:02.879Z,999.61
2018-08-14T00:57:43.394Z,999.63
2018-08-14T00:58:23.905Z,999.64
2018-08-14T00:59:04.417Z,999.61
2018-08-14T00:59:44.892Z,999.61
2018-08-14T01:00:25.406Z,999.64
2018-08-14T01:01:05.944Z,999.63
2018-08-14T01:01:46.388Z,999.62
2018-08-14T01:02:26.918Z,999.65
2018-08-14T01:03:07.449Z,999.66
2018-08-14T01:03:47.937Z,999.65
2018-08-14T01:04:28.411Z,999.64
2018-08-14T01:05:08.912Z,999.66
2018-08-14T01:05:49.447Z,999.65
2018-08-14T01:06:29.903Z,999.63
2018-08-14T01:07:10.407Z,999.66
2018-08-14T01:07:50.904Z,999.65
2018-08-14T01:08:31.444Z,999.6
2018-08-14T01:09:12.089Z,999.64
2018-08-14T01:09:52.554Z,999.64
2018-08-14T01:10:33.056Z,999.58
2018-08-14T01:11:13.540Z,999.63
2018-08-14T01:11:54.009Z,999.61
2018-08-14T01:12:34.514Z,999.61
2018-08-14T01:13:14.997Z,999.63
2018-08-14T01:13:55.473Z,999.63
2018-08-14T01:14:36.004Z,999.65
2018-08-14T01:15:16.483Z,999.65
2018-08-14T01:15:56.980Z,999.68
2018-08-14T01:16:37.508Z,999.65
2018-08-14T01:17:17.975Z,999.65
2018-08-14T01:17:58.453Z,999.63
2018-08-14T01:18:38.975Z,999.59
2018-08-14T01:19:19.459Z,999.64
2018-08-14T01:20:00.004Z,999.58
2018-08-14T01:20:40.455Z,999.59
2018-08-14T01:21:20.981Z,999.57
2018-08-14T01:22:01.521Z,999.58
2018-08-14T01:22:41.957Z,999.59
2018-08-14T01:23:22.438Z,999.64
2018-08-14T01:24:02.956Z,999.62
2018-08-14T01:24:43.417Z,999.59
2018-08-14T01:25:23.914Z,999.59
2018-08-14T01:26:04.489Z,999.62
2018-08-14T01:26:44.985Z,999.63
2018-08-14T01:27:25.446Z,999.61
2018-08-14T01:28:05.982Z,999.63
2018-08-14T01:28:46.447Z,999.62
2018-08-14T01:29:26.934Z,999.62
2018-08-14T01:30:07.460Z,999.67
2018-08-14T01:30:47.930Z,999.66
2018-08-14T01:31:28.390Z,999.67
2018-08-14T01:32:08.890Z,999.67
2018-08-14T01:32:49.392Z,999.65
2018-08-14T01:33:29.886Z,999.73
2018-08-14T01:34:10.375Z,999.7
2018-08-14T01:34:50.866Z,999.72
2018-08-14T01:35:31.377Z,999.71
2018-08-14T01:36:11.940Z,999.74
2018-08-14T01:36:52.434Z,999.77
2018-08-14T01:37:32.938Z,999.73
2018-08-14T01:38:13.436Z,999.71
2018-08-14T01:38:53.917Z,999.71
2018-08-14T01:39:34.455Z,999.78
2018-08-14T01:40:14.948Z,999.78
2018-08-14T01:40:55.463Z,999.81
2018-08-14T01:41:35.921Z,999.83
2018-08-14T01:42:16.454Z,999.8
2018-08-14T01:42:56.931Z,999.83
2018-08-14T01:43:37.426Z,999.81
2018-08-14T01:44:17.936Z,999.86
2018-08-14T01:44:58.373Z,999.87
2018-08-14T01:45:38.850Z,999.85
2018-08-14T01:46:19.337Z,999.86
2018-08-14T01:46:59.914Z,999.87
2018-08-14T01:47:40.357Z,999.86
2018-08-14T01:48:20.859Z,999.85
2018-08-14T01:49:01.317Z,999.85
2018-08-14T01:49:41.886Z,999.87
2018-08-14T01:50:22.311Z,999.88
2018-08-14T01:51:02.795Z,999.87
2018-08-14T01:51:43.278Z,999.86
2018-08-14T01:52:23.752Z,999.85
2018-08-14T01:53:04.269Z,999.89
2018-08-14T01:53:44.720Z,999.89
2018-08-14T01:54:25.271Z,999.89
2018-08-14T01:55:05.718Z,999.89
2018-08-14T01:55:46.162Z,999.9
2018-08-14T01:56:26.667Z,999.89
2018-08-14T01:57:07.165Z,999.9
2018-08-14T01:57:47.699Z,999.9
2018-08-14T01:58:28.193Z,999.91
2018-08-14T01:59:08.686Z,999.96
2018-08-14T01:59:49.224Z,999.95
2018-08-14T02:00:29.729Z,999.94
2018-08-14T02:01:10.190Z,1000
2018-08-14T02:01:50.709Z,999.98
2018-08-14T02:02:31.244Z,999.99
2018-08-14T02:03:11.737Z,999.99
2018-08-14T02:03:52.269Z,999.97
2018-08-14T02:04:32.735Z,999.97
2018-08-14T02:05:13.254Z,999.98
2018-08-14T02:05:53.751Z,999.97
2018-08-14T02:06:34.249Z,999.99
2018-08-14T02:07:14.818Z,1000.01
2018-08-14T02:07:55.309Z,1000.01
2018-08-14T02:08:35.817Z,999.98
2018-08-14T02:09:16.470Z,1000.02
2018-08-14T02:09:56.962Z,1000
2018-08-14T02:10:37.460Z,1000.02
2018-08-14T02:11:17.920Z,999.99
2018-08-14T02:11:58.427Z,1000.03
2018-08-14T02:12:38.911Z,999.99
2018-08-14T02:13:19.436Z,1000.04
2018-08-14T02:13:59.982Z,1000.08
2018-08-14T02:14:40.476Z,1000.08
2018-08-14T02:15:21.010Z,1000.07
2018-08-14T02:16:01.486Z,1000.06
2018-08-14T02:16:41.976Z,1000.1
2018-08-14T02:17:22.493Z,1000.12
2018-08-14T02:18:02.996Z,1000.11
2018-08-14T02:18:43.488Z,1000.11
2018-08-14T02:19:24.002Z,1000.15
2018-08-14T02:20:04.501Z,1000.1
2018-08-14T02:20:44.998Z,1000.08
2018-08-14T02:21:25.502Z,1000.08
2018-08-14T02:22:05.994Z,1000.09
2018-08-14T02:22:46.477Z,1000.1
2018-08-14T02:23:27.002Z,1000.08
2018-08-14T02:24:07.467Z,1000.16
2018-08-14T02:24:47.970Z,1000.13
2018-08-14T02:25:28.499Z,1000.17
2018-08-14T02:26:09.006Z,1000.16
2018-08-14T02:26:49.505Z,1000.17
2018-08-14T02:27:29.998Z,1000.16
2018-08-14T02:28:10.512Z,1000.13
2018-08-14T02:28:50.995Z,1000.12
2018-08-14T02:29:31.492Z,1000.12
2018-08-14T02:30:11.999Z,1000.15
2018-08-14T02:30:52.448Z,1000.14
2018-08-14T02:31:32.945Z,1000.19
2018-08-14T02:32:13.455Z,1000.17
2018-08-14T02:32:53.959Z,1000.19
2018-08-14T02:33:34.439Z,1000.22
2018-08-14T02:34:14.932Z,1000.2
2018-08-14T02:34:55.399Z,1000.21
2018-08-14T02:35:35.896Z,1000.25
2018-08-14T02:36:16.393Z,1000.22
2018-08-14T02:36:56.909Z,1000.21
2018-08-14T02:37:37.366Z,1000.21
2018-08-14T02:38:17.866Z,1000.21
2018-08-14T02:38:58.413Z,1000.27
2018-08-14T02:39:38.854Z,1000.24
2018-08-14T02:40:19.347Z,1000.21
2018-08-14T02:40:59.853Z,1000.23
2018-08-14T02:41:40.370Z,1000.24
2018-08-14T02:42:20.879Z,1000.26
2018-08-14T02:43:01.364Z,1000.25
2018-08-14T02:43:41.872Z,1000.21
2018-08-14T02:44:22.433Z,1000.22
2018-08-14T02:45:02.889Z,1000.28
2018-08-14T02:45:43.438Z,1000.27
2018-08-14T02:46:23.908Z,1000.24
2018-08-14T02:47:04.507Z,1000.26
2018-08-14T02:47:44.984Z,1000.25
2018-08-14T02:48:25.489Z,1000.25
2018-08-14T02:49:05.982Z,1000.26
2018-08-14T02:49:46.494Z,1000.31
2018-08-14T02:50:27.020Z,1000.26
2018-08-14T02:51:07.495Z,1000.33
2018-08-14T02:51:47.969Z,1000.3
2018-08-14T02:52:28.439Z,1000.32
2018-08-14T02:53:08.977Z,1000.35
2018-08-14T02:53:49.448Z,1000.38
2018-08-14T02:54:29.976Z,1000.37
2018-08-14T02:55:10.443Z,1000.36
2018-08-14T02:55:50.961Z,1000.34
2018-08-14T02:56:31.453Z,1000.32
2018-08-14T02:57:11.969Z,1000.36
2018-08-14T02:57:52.489Z,1000.38
2018-08-14T02:58:33.067Z,1000.37
2018-08-14T02:59:13.577Z,1000.33
2018-08-14T02:59:54.097Z,1000.33
2018-08-14T03:00:34.576Z,1000.31
2018-08-14T03:01:15.071Z,1000.32
2018-08-14T03:01:55.575Z,1000.36
2018-08-14T03:02:36.098Z,1000.31
2018-08-14T03:03:16.582Z,1000.35
2018-08-14T03:03:57.070Z,1000.38
2018-08-14T03:04:37.585Z,1000.36
2018-08-14T03:05:18.108Z,1000.38
2018-08-14T03:05:58.625Z,1000.34
2018-08-14T03:06:39.091Z,1000.32
2018-08-14T03:07:19.625Z,1000.36
2018-08-14T03:08:00.117Z,1000.38
2018-08-14T03:08:40.626Z,1000.39
2018-08-14T03:09:21.140Z,1000.42
2018-08-14T03:10:01.640Z,1000.35
2018-08-14T03:10:42.148Z,1000.42
2018-08-14T03:11:22.629Z,1000.41
2018-08-14T03:12:03.181Z,1000.42
2018-08-14T03:12:43.622Z,1000.43
2018-08-14T03:13:24.112Z,1000.43
2018-08-14T03:14:04.632Z,1000.48
2018-08-14T03:14:45.126Z,1000.5
2018-08-14T03:15:25.631Z,1000.48
2018-08-14T03:16:06.119Z,1000.45
2018-08-14T03:16:46.672Z,1000.47
2018-08-14T03:17:27.174Z,1000.47
2018-08-14T03:18:07.667Z,1000.45
2018-08-14T03:18:48.183Z,1000.48
2018-08-14T03:19:28.751Z,1000.45
2018-08-14T03:20:09.210Z,1000.45
2018-08-14T03:20:49.721Z,1000.48
2018-08-14T03:21:30.174Z,1000.45
2018-08-14T03:22:10.672Z,1000.49
2018-08-14T03:22:51.179Z,1000.45
2018-08-14T03:23:31.661Z,1000.46
2018-08-14T03:24:12.200Z,1000.48
2018-08-14T03:24:52.707Z,1000.46
2018-08-14T03:25:33.202Z,1000.49
2018-08-14T03:26:13.724Z,1000.51
2018-08-14T03:26:54.219Z,1000.54
2018-08-14T03:27:34.701Z,1000.51
2018-08-14T03:28:15.231Z,1000.53
2018-08-14T03:28:55.674Z,1000.54
2018-08-14T03:29:36.217Z,1000.58
2018-08-14T03:30:16.734Z,1000.55
2018-08-14T03:30:57.227Z,1000.56
2018-08-14T03:31:37.729Z,1000.57
2018-08-14T03:32:18.222Z,1000.58
2018-08-14T03:32:58.716Z,1000.6
2018-08-14T03:33:39.226Z,1000.63
2018-08-14T03:34:19.744Z,1000.62
2018-08-14T03:35:00.233Z,1000.6
2018-08-14T03:35:40.709Z,1000.59
2018-08-14T03:36:21.214Z,1000.64
2018-08-14T03:37:01.735Z,1000.63
2018-08-14T03:37:42.208Z,1000.63
2018-08-14T03:38:22.678Z,1000.61
2018-08-14T03:39:03.200Z,1000.67
2018-08-14T03:39:43.716Z,1000.69
2018-08-14T03:40:24.159Z,1000.67
2018-08-14T03:41:04.660Z,1000.68
2018-08-14T03:41:45.185Z,1000.68
2018-08-14T03:42:25.660Z,1000.68
2018-08-14T03:43:06.164Z,1000.67
2018-08-14T03:43:46.620Z,1000.7
2018-08-14T03:44:27.147Z,1000.69
2018-08-14T03:45:07.623Z,1000.67
2018-08-14T03:45:48.146Z,1000.72
2018-08-14T03:46:28.629Z,1000.68
2018-08-14T03:47:09.190Z,1000.64
2018-08-14T03:47:49.694Z,1000.65
2018-08-14T03:48:30.191Z,1000.63
2018-08-14T03:49:10.698Z,1000.68
2018-08-14T03:49:51.183Z,1000.71
2018-08-14T03:50:31.695Z,1000.73
2018-08-14T03:51:12.187Z,1000.72
2018-08-14T03:51:52.693Z,1000.77
2018-08-14T03:52:33.173Z,1000.74
2018-08-14T03:53:13.682Z,1000.69
2018-08-14T03:53:54.152Z,1000.69
2018-08-14T03:54:34.603Z,1000.74
2018-08-14T03:55:15.102Z,1000.71
2018-08-14T03:55:55.626Z,1000.74
2018-08-14T03:56:36.137Z,1000.7
2018-08-14T03:57:16.657Z,1000.67
2018-08-14T03:57:57.082Z,1000.71
2018-08-14T03:58:37.644Z,1000.68
2018-08-14T03:59:18.080Z,1000.66
2018-08-14T03:59:58.581Z,1000.67
2018-08-14T04:00:39.234Z,1000.69
2018-08-14T04:01:19.706Z,1000.66
2018-08-14T04:02:00.193Z,1000.68
2018-08-14T04:02:40.647Z,1000.69
2018-08-14T04:03:21.138Z,1000.71
2018-08-14T04:04:01.629Z,1000.68
2018-08-14T04:04:42.142Z,1000.74
2018-08-14T04:05:22.585Z,1000.72
2018-08-14T04:06:03.204Z,1000.66
2018-08-14T04:06:43.577Z,1000.71
2018-08-14T04:07:24.088Z,1000.75
2018-08-14T04:08:04.591Z,1000.8
2018-08-14T04:08:45.105Z,1000.8
2018-08-14T04:09:25.590Z,1000.77
2018-08-14T04:10:06.072Z,1000.81
2018-08-14T04:10:46.529Z,1000.87
2018-08-14T04:11:27.042Z,1000.84
2018-08-14T04:12:07.540Z,1000.86
2018-08-14T04:12:48.058Z,1000.86
2018-08-14T04:13:28.549Z,1000.91
2018-08-14T04:14:09.002Z,1000.89
2018-08-14T04:14:49.531Z,1000.88
2018-08-14T04:15:30.006Z,1000.89
2018-08-14T04:16:10.543Z,1000.87
2018-08-14T04:16:51.002Z,1000.92
2018-08-14T04:17:31.516Z,1000.9
2018-08-14T04:18:12.028Z,1000.9
2018-08-14T04:18:52.482Z,1000.94
2018-08-14T04:19:32.977Z,1000.95
2018-08-14T04:20:13.468Z,1000.98
2018-08-14T04:20:53.984Z,1000.94
2018-08-14T04:21:34.470Z,1000.98
2018-08-14T04:22:14.949Z,1001.02
2018-08-14T04:22:55.414Z,1001.04
2018-08-14T04:23:35.928Z,1001.07
2018-08-14T04:24:16.422Z,1001.03
2018-08-14T04:24:56.994Z,1001.06
2018-08-14T04:25:37.474Z,1001.07
2018-08-14T04:26:17.953Z,1001.05
2018-08-14T04:26:58.451Z,1001.08
2018-08-14T04:27:38.913Z,1001.07
2018-08-14T04:28:19.430Z,1001.04
2018-08-14T04:28:59.942Z,1001.1
2018-08-14T04:29:40.455Z,1001.1
2018-08-14T04:30:20.927Z,1001.1
2018-08-14T04:31:01.404Z,1001.1
2018-08-14T04:31:41.861Z,1001.06
2018-08-14T04:32:22.329Z,1001.1
2018-08-14T04:33:02.867Z,1001.08
2018-08-14T04:33:43.353Z,1001.12
2018-08-14T04:34:23.876Z,1001.13
2018-08-14T04:35:04.374Z,1001.14
2018-08-14T04:35:44.875Z,1001.13
2018-08-14T04:36:25.347Z,1001.15
2018-08-14T04:37:05.827Z,1001.16
2018-08-14T04:37:46.348Z,1001.22
2018-08-14T04:38:26.826Z,1001.19
2018-08-14T04:39:07.322Z,1001.23
2018-08-14T04:39:47.808Z,1001.24
2018-08-14T04:40:28.336Z,1001.21
2018-08-14T04:41:08.844Z,1001.19
2018-08-14T04:41:49.284Z,1001.24
2018-08-14T04:42:29.795Z,1001.18
2018-08-14T04:43:10.322Z,1001.22
2018-08-14T04:43:50.737Z,1001.22
2018-08-14T04:44:31.255Z,1001.22
2018-08-14T04:45:11.779Z,1001.22
2018-08-14T04:45:52.273Z,1001.21
2018-08-14T04:46:32.733Z,1001.24
2018-08-14T04:47:13.266Z,1001.21
2018-08-14T04:47:53.764Z,1001.22
2018-08-14T04:48:34.241Z,1001.3
2018-08-14T04:49:14.875Z,1001.31
2018-08-14T04:49:55.354Z,1001.28
2018-08-14T04:50:35.813Z,1001.33
2018-08-14T04:51:16.320Z,1001.3
2018-08-14T04:51:56.810Z,1001.32
2018-08-14T04:52:37.280Z,1001.35
2018-08-14T04:53:17.788Z,1001.35
2018-08-14T04:53:58.278Z,1001.39
2018-08-14T04:54:38.797Z,1001.41
2018-08-14T04:55:19.272Z,1001.39
2018-08-14T04:55:59.767Z,1001.36
2018-08-14T04:56:40.276Z,1001.41
2018-08-14T04:57:20.751Z,1001.35
2018-08-14T04:58:01.973Z,1001.39
2018-08-14T04:58:42.470Z,1001.41
2018-08-14T04:59:22.969Z,1001.41
2018-08-14T05:00:03.518Z,1001.4
2018-08-14T05:00:44.061Z,1001.39
2018-08-14T05:01:24.507Z,1001.42
2018-08-14T05:02:04.985Z,1001.39
2018-08-14T05:02:45.439Z,1001.41
2018-08-14T05:03:26.001Z,1001.4
2018-08-14T05:04:06.511Z,1001.41
2018-08-14T05:04:47.000Z,1001.39
2018-08-14T05:05:27.416Z,1001.4
2018-08-14T05:06:07.949Z,1001.42
2018-08-14T05:06:48.424Z,1001.39
2018-08-14T05:07:28.907Z,1001.48
2018-08-14T05:08:09.426Z,1001.42
2018-08-14T05:08:49.974Z,1001.42
2018-08-14T05:09:30.396Z,1001.41
2018-08-14T05:10:10.914Z,1001.44
2018-08-14T05:10:51.408Z,1001.48
2018-08-14T05:11:31.859Z,1001.42
2018-08-14T05:12:12.347Z,1001.42
2018-08-14T05:12:52.857Z,1001.42
2018-08-14T05:13:33.399Z,1001.43
2018-08-14T05:14:13.868Z,1001.43
2018-08-14T05:14:54.341Z,1001.41
2018-08-14T05:15:34.849Z,1001.45
2018-08-14T05:16:15.311Z,1001.38
2018-08-14T05:16:55.822Z,1001.38
2018-08-14T05:17:36.347Z,1001.44
2018-08-14T05:18:16.821Z,1001.43
2018-08-14T05:18:57.300Z,1001.43
2018-08-14T05:19:37.793Z,1001.41
2018-08-14T05:20:18.284Z,1001.49
2018-08-14T05:20:58.752Z,1001.47
2018-08-14T05:21:39.280Z,1001.47
2018-08-14T05:22:19.851Z,1001.47
2018-08-14T05:23:00.357Z,1001.5
2018-08-14T05:23:40.845Z,1001.52
2018-08-14T05:24:21.343Z,1001.49
2018-08-14T05:25:01.832Z,1001.51
2018-08-14T05:25:42.344Z,1001.53
2018-08-14T05:26:22.883Z,1001.54
2018-08-14T05:27:03.325Z,1001.52
2018-08-14T05:27:44.388Z,1001.48
2018-08-14T05:28:25.171Z,1001.5
2018-08-14T05:29:05.678Z,1001.52
2018-08-14T05:29:46.147Z,1001.52
2018-08-14T05:30:26.687Z,1001.54
2018-08-14T05:31:07.148Z,1001.55
2018-08-14T05:31:47.673Z,1001.6
2018-08-14T05:32:28.264Z,1001.57
2018-08-14T05:33:08.767Z,1001.58
2018-08-14T05:33:49.334Z,1001.66
2018-08-14T05:34:29.773Z,1001.6
2018-08-14T05:35:10.249Z,1001.69
2018-08-14T05:35:50.764Z,1001.63
2018-08-14T05:36:31.308Z,1001.66
2018-08-14T05:37:11.799Z,1001.67
2018-08-14T05:37:52.299Z,1001.66
2018-08-14T05:38:32.749Z,1001.7
2018-08-14T05:39:13.279Z,1001.71
2018-08-14T05:39:53.729Z,1001.69
2018-08-14T05:40:34.419Z,1001.75
2018-08-14T05:41:15.983Z,1001.67
2018-08-14T05:41:56.942Z,1001.65
2018-08-14T05:42:37.431Z,1001.69
2018-08-14T05:43:17.992Z,1001.71
2018-08-14T05:43:58.477Z,1001.7
2018-08-14T05:44:39.063Z,1001.68
2018-08-14T05:45:19.553Z,1001.73
2018-08-14T05:46:00.041Z,1001.68
2018-08-14T05:46:40.561Z,1001.74
2018-08-14T05:47:21.036Z,1001.78
2018-08-14T05:48:01.551Z,1001.78
2018-08-14T05:48:42.029Z,1001.77
2018-08-14T05:49:22.547Z,1001.84
2018-08-14T05:50:03.141Z,1001.8
2018-08-14T05:50:43.591Z,1001.79
2018-08-14T05:51:24.147Z,1001.79
2018-08-14T05:52:04.764Z,1001.84
2018-08-14T05:52:45.193Z,1001.8
2018-08-14T05:53:25.742Z,1001.81
2018-08-14T05:54:06.199Z,1001.84
2018-08-14T05:54:46.741Z,1001.86
2018-08-14T05:55:27.206Z,1001.85
2018-08-14T05:56:07.686Z,1001.85
2018-08-14T05:56:48.237Z,1001.8
2018-08-14T05:57:28.760Z,1001.86
2018-08-14T05:58:09.233Z,1001.82
2018-08-14T05:58:49.716Z,1001.83
2018-08-14T05:59:30.216Z,1001.89
2018-08-14T06:00:10.730Z,1001.89
2018-08-14T06:00:51.185Z,1001.86
2018-08-14T06:01:31.743Z,1001.9
2018-08-14T06:02:12.235Z,1001.91
2018-08-14T06:02:52.699Z,1001.92
2018-08-14T06:03:33.174Z,1001.89
2018-08-14T06:04:13.694Z,1001.92
2018-08-14T06:04:54.186Z,1001.96
2018-08-14T06:05:34.672Z,1001.89
2018-08-14T06:06:15.153Z,1001.87
2018-08-14T06:06:55.625Z,1001.89
2018-08-14T06:07:36.190Z,1001.89
2018-08-14T06:08:16.701Z,1001.95
2018-08-14T06:08:57.206Z,1001.9
2018-08-14T06:09:38.517Z,1001.9
2018-08-14T06:10:19.027Z,1001.91
2018-08-14T06:10:59.496Z,1001.89
2018-08-14T06:11:40.011Z,1001.92
2018-08-14T06:12:20.502Z,1001.91
2018-08-14T06:13:01.006Z,1001.91
2018-08-14T06:13:41.482Z,1001.95
2018-08-14T06:14:22.120Z,1001.95
2018-08-14T06:15:02.743Z,1001.91
2018-08-14T06:15:43.197Z,1001.97
2018-08-14T06:16:23.656Z,1001.96
2018-08-14T06:17:04.360Z,1001.97
2018-08-14T06:17:44.747Z,1001.95
2018-08-14T06:18:25.273Z,1002.02
2018-08-14T06:19:05.771Z,1002.02
2018-08-14T06:19:47.733Z,1002.06
2018-08-14T06:20:29.582Z,1002.06
2018-08-14T06:21:10.043Z,1002.09
2018-08-14T06:21:50.581Z,1002.07
2018-08-14T06:22:31.219Z,1002.05
2018-08-14T06:23:11.565Z,1002.07
2018-08-14T06:23:52.032Z,1002.05
2018-08-14T06:24:32.563Z,1002.01
2018-08-14T06:25:13.120Z,1002
2018-08-14T06:25:53.491Z,1002.05
2018-08-14T06:26:34.023Z,1002.11
2018-08-14T06:27:14.487Z,1002.05
2018-08-14T06:27:55.044Z,1002.08
2018-08-14T06:28:35.606Z,1002.03
2018-08-14T06:29:16.037Z,1002.07
2018-08-14T06:29:56.544Z,1002.14
2018-08-14T06:30:37.074Z,1002.15
2018-08-14T06:31:17.560Z,1002.18
2018-08-14T06:31:58.090Z,1002.17
2018-08-14T06:32:38.553Z,1002.23
2018-08-14T06:33:19.060Z,1002.18
2018-08-14T06:33:59.563Z,1002.24
2018-08-14T06:34:40.077Z,1002.23
2018-08-14T06:35:20.631Z,1002.24
2018-08-14T06:36:01.074Z,1002.22
2018-08-14T06:36:41.640Z,1002.29
2018-08-14T06:37:22.057Z,1002.29
2018-08-14T06:38:02.578Z,1002.28
2018-08-14T06:38:43.018Z,1002.25
2018-08-14T06:39:23.552Z,1002.35
2018-08-14T06:40:04.294Z,1002.25
2018-08-14T06:40:44.857Z,1002.31
2018-08-14T06:41:25.315Z,1002.32
2018-08-14T06:42:06.438Z,1002.29
2018-08-14T06:42:46.419Z,1002.31
2018-08-14T06:43:27.007Z,1002.28
2018-08-14T06:44:07.545Z,1002.31
2018-08-14T06:44:48.029Z,1002.31
2018-08-14T06:50:41.576Z,1002.37
2018-08-14T06:51:22.088Z,1002.37
2018-08-14T06:52:02.619Z,1002.38
2018-08-14T06:52:43.093Z,1002.43
2018-08-14T06:53:23.599Z,1002.43
2018-08-14T06:54:04.068Z,1002.45
2018-08-14T06:54:44.560Z,1002.44
2018-08-14T06:55:25.037Z,1002.44
2018-08-14T06:56:05.552Z,1002.42
2018-08-14T06:56:46.048Z,1002.47
2018-08-14T06:57:26.756Z,1002.45
2018-08-14T06:58:07.344Z,1002.48
2018-08-14T06:58:47.828Z,1002.46
2018-08-14T06:59:28.407Z,1002.45
2018-08-14T07:00:08.922Z,1002.5
2018-08-14T07:00:49.427Z,1002.49
2018-08-14T07:01:29.895Z,1002.54
2018-08-14T07:02:10.448Z,1002.5
2018-08-14T07:02:50.969Z,1002.54
2018-08-14T07:03:31.353Z,1002.48
2018-08-14T07:04:11.888Z,1002.53
2018-08-14T07:04:52.428Z,1002.54
2018-08-14T07:05:32.959Z,1002.55
2018-08-14T07:06:13.445Z,1002.52
2018-08-14T07:06:53.971Z,1002.52
2018-08-14T07:07:34.501Z,1002.48
2018-08-14T07:08:15.017Z,1002.54
2018-08-14T07:08:55.636Z,1002.52
2018-08-14T07:09:36.167Z,1002.53
2018-08-14T07:10:16.654Z,1002.52
2018-08-14T07:10:57.159Z,1002.55
2018-08-14T07:11:37.645Z,1002.5
2018-08-14T07:12:18.161Z,1002.49
2018-08-14T07:12:58.665Z,1002.49
2018-08-14T07:13:39.190Z,1002.52
2018-08-14T07:14:19.862Z,1002.52
2018-08-14T07:15:00.700Z,1002.52
2018-08-14T07:15:41.144Z,1002.52
2018-08-14T07:16:21.698Z,1002.51
2018-08-14T07:17:02.401Z,1002.47
2018-08-14T07:17:42.887Z,1002.48
2018-08-14T07:18:23.402Z,1002.45
2018-08-14T07:19:03.892Z,1002.54
2018-08-14T07:19:44.386Z,1002.52
2018-08-14T07:20:24.831Z,1002.52
2018-08-14T07:21:05.527Z,1002.49
2018-08-14T07:21:46.265Z,1002.53
2018-08-14T07:22:26.958Z,1002.58
2018-08-14T07:23:07.373Z,1002.57
2018-08-14T07:23:47.912Z,1002.55
2018-08-14T07:24:28.482Z,1002.58
2018-08-14T07:25:08.936Z,1002.63
2018-08-14T07:25:49.470Z,1002.58
2018-08-14T07:26:29.963Z,1002.6
2018-08-14T07:27:10.772Z,1002.62
2018-08-14T07:27:51.235Z,1002.57
2018-08-14T07:28:31.797Z,1002.6
2018-08-14T07:29:12.303Z,1002.59
2018-08-14T07:29:52.715Z,1002.62
2018-08-14T07:30:33.221Z,1002.64
2018-08-14T07:31:13.752Z,1002.57
2018-08-14T07:31:54.270Z,1002.57
2018-08-14T07:32:34.725Z,1002.57
2018-08-14T07:33:15.267Z,1002.6
2018-08-14T07:33:55.763Z,1002.59
2018-08-14T07:34:36.320Z,1002.58
2018-08-14T07:35:16.831Z,1002.59
2018-08-14T07:35:57.330Z,1002.59
2018-08-14T07:36:37.817Z,1002.59
2018-08-14T07:37:18.298Z,1002.54
2018-08-14T07:37:58.779Z,1002.57
2018-08-14T07:38:39.276Z,1002.58
2018-08-14T07:39:19.796Z,1002.56
2018-08-14T07:40:00.289Z,1002.56
2018-08-14T07:40:40.775Z,1002.57
2018-08-14T07:41:21.332Z,1002.63
2018-08-14T07:42:01.809Z,1002.62
2018-08-14T07:42:42.315Z,1002.65
2018-08-14T07:43:22.816Z,1002.65
2018-08-14T07:44:03.332Z,1002.62
2018-08-14T07:44:43.864Z,1002.64
2018-08-14T07:45:24.314Z,1002.64
2018-08-14T07:46:04.845Z,1002.68
2018-08-14T07:46:45.413Z,1002.66
2018-08-14T07:47:25.876Z,1002.69
2018-08-14T07:48:07.386Z,1002.68
2018-08-14T07:48:48.148Z,1002.66
2018-08-14T07:49:28.566Z,1002.67
2018-08-14T07:50:09.306Z,1002.66
2018-08-14T07:50:49.576Z,1002.71
2018-08-14T07:51:30.118Z,1002.7
2018-08-14T07:52:10.632Z,1002.73
2018-08-14T07:52:51.190Z,1002.68
2018-08-14T07:53:31.656Z,1002.66
2018-08-14T07:54:12.115Z,1002.7
2018-08-14T07:54:52.617Z,1002.66
2018-08-14T07:55:33.995Z,1002.71
2018-08-14T07:56:13.608Z,1002.71
2018-08-14T07:56:54.106Z,1002.68
2018-08-14T07:57:34.615Z,1002.7
2018-08-14T07:58:15.139Z,1002.73
2018-08-14T07:58:55.677Z,1002.72
2018-08-14T07:59:36.155Z,1002.71
2018-08-14T08:00:16.677Z,1002.79
2018-08-14T08:00:57.119Z,1002.8
2018-08-14T08:01:37.659Z,1002.79
2018-08-14T08:02:18.224Z,1002.81
2018-08-14T08:02:58.746Z,1002.81
2018-08-14T08:03:39.235Z,1002.82
2018-08-14T08:04:19.879Z,1002.84
2018-08-14T08:05:00.208Z,1002.87
2018-08-14T08:05:40.717Z,1002.78
2018-08-14T08:06:21.211Z,1002.83
2018-08-14T08:07:01.705Z,1002.87
2018-08-14T08:07:42.220Z,1002.8
2018-08-14T08:08:22.696Z,1002.86
2018-08-14T08:09:03.196Z,1002.86
2018-08-14T08:09:43.745Z,1002.89
2018-08-14T08:10:24.325Z,1002.93
2018-08-14T08:11:04.758Z,1002.9
2018-08-14T08:11:45.214Z,1002.89
2018-08-14T08:12:25.750Z,1002.84
2018-08-14T08:13:06.205Z,1002.88
2018-08-14T08:13:46.688Z,1002.87
2018-08-14T08:14:27.192Z,1002.85
2018-08-14T08:15:07.719Z,1002.85
2018-08-14T08:15:48.193Z,1002.92
2018-08-14T08:16:28.656Z,1002.86
2018-08-14T08:17:09.158Z,1002.9
2018-08-14T08:17:49.702Z,1002.83
2018-08-14T08:18:30.231Z,1002.87
2018-08-14T08:19:10.669Z,1002.91
2018-08-14T08:19:51.189Z,1002.89
2018-08-14T08:20:31.655Z,1002.91